Time;durP1;ratioP1;P1;durP2;ratioP2;P2;SDS_P1;SDS_P2;PMS_P1;PMS_P2;Temp;Humidity;BMP_temperature;BMP_pressure;BME280_temperature;BME280_humidity;BME280_pressure;Samples;Min_cycle;Max_cycle;Signal;HPM_P1;HPM_P2
2021/07/05 00:01:52;;;;;;;3.30;3.07;;;18.80;99.90;;;;;;5100859;28;20217;-47
2021/07/05 00:04:19;;;;;;;3.40;3.20;;;18.70;99.90;;;;;;5090894;28;20208;-48
2021/07/05 00:06:45;;;;;;;5.40;3.20;;;18.60;99.90;;;;;;5100607;28;20476;-50
2021/07/05 00:09:12;;;;;;;3.27;2.90;;;18.60;99.90;;;;;;5104773;28;20193;-51
2021/07/05 00:11:39;;;;;;;4.23;3.83;;;18.60;99.90;;;;;;5101706;28;20213;-47
2021/07/05 00:14:06;;;;;;;4.20;3.20;;;18.60;99.90;;;;;;5104161;28;20200;-50
2021/07/05 00:16:32;;;;;;;3.57;3.37;;;18.60;99.90;;;;;;5102628;28;20205;-48
2021/07/05 00:19:00;;;;;;;3.73;3.47;;;18.60;99.90;;;;;;5088298;28;20437;-48
2021/07/05 00:21:27;;;;;;;3.43;3.23;;;18.70;99.90;;;;;;5103813;28;20577;-46
2021/07/05 00:23:54;;;;;;;3.43;3.23;;;18.60;99.90;;;;;;5101455;28;20193;-48
2021/07/05 00:26:20;;;;;;;3.53;2.83;;;18.60;99.90;;;;;;5104452;28;20204;-46
2021/07/05 00:28:47;;;;;;;4.07;3.77;;;18.60;99.90;;;;;;5099601;28;20457;-49
2021/07/05 00:31:13;;;;;;;4.37;3.63;;;18.50;99.90;;;;;;5103860;28;20213;-50
2021/07/05 00:33:40;;;;;;;4.00;3.70;;;18.40;99.90;;;;;;5101014;28;20205;-49
2021/07/05 00:36:08;;;;;;;4.10;3.80;;;18.40;99.90;;;;;;5089676;28;20190;-47
2021/07/05 00:38:35;;;;;;;4.93;3.80;;;18.50;99.90;;;;;;5101495;28;20213;-51
2021/07/05 00:41:02;;;;;;;4.37;4.07;;;18.50;99.90;;;;;;5102464;28;20417;-46
2021/07/05 00:43:29;;;;;;;4.47;4.07;;;18.50;99.90;;;;;;5102963;28;20208;-51
2021/07/05 00:45:56;;;;;;;4.90;4.60;;;18.50;99.90;;;;;;5101224;28;20209;-48
2021/07/05 00:48:23;;;;;;;4.80;4.40;;;18.30;99.90;;;;;;5104502;28;20547;-48
2021/07/05 00:50:49;;;;;;;4.27;3.97;;;18.10;99.90;;;;;;5085513;28;20729;-48
2021/07/05 00:53:18;;;;;;;5.00;4.23;;;17.90;99.90;;;;;;5102424;28;20566;-46
2021/07/05 00:55:45;;;;;;;4.43;4.13;;;18.00;99.90;;;;;;5098697;28;20202;-47
2021/07/05 00:58:11;;;;;;;4.50;4.17;;;18.00;99.90;;;;;;5103579;28;20216;-49
2021/07/05 01:00:39;;;;;;;4.37;4.07;;;18.10;99.90;;;;;;5099594;28;20205;-50
2021/07/05 01:03:06;;;;;;;4.70;4.30;;;18.20;99.90;;;;;;5103606;28;20205;-46
2021/07/05 01:05:33;;;;;;;4.40;4.10;;;18.20;99.90;;;;;;5095159;28;20292;-47
2021/07/05 01:08:00;;;;;;;4.87;4.27;;;18.20;99.90;;;;;;5095222;28;20205;-47
2021/07/05 01:10:29;;;;;;;4.17;3.87;;;18.30;99.90;;;;;;5102429;28;20289;-50
2021/07/05 01:12:57;;;;;;;5.73;4.10;;;18.30;99.90;;;;;;5095140;28;20946;-51
2021/07/05 01:15:25;;;;;;;4.50;4.20;;;18.30;99.90;;;;;;5103148;28;20220;-50
2021/07/05 01:17:53;;;;;;;5.43;4.03;;;18.30;99.90;;;;;;5095880;28;20782;-47
2021/07/05 01:20:23;;;;;;;4.13;3.83;;;18.30;99.90;;;;;;5103430;28;20197;-48
2021/07/05 01:22:52;;;;;;;4.47;4.17;;;18.30;99.90;;;;;;5085987;28;20733;-47
2021/07/05 01:25:21;;;;;;;4.43;4.00;;;18.30;99.90;;;;;;5103027;28;20208;-47
2021/07/05 01:27:48;;;;;;;4.97;3.53;;;18.30;99.90;;;;;;5098578;28;20292;-48
2021/07/05 01:30:19;;;;;;;4.13;3.67;;;18.30;99.90;;;;;;5103087;28;20197;-47
2021/07/05 01:32:47;;;;;;;8.27;4.20;;;18.30;99.90;;;;;;5099243;28;20220;-47
2021/07/05 01:35:14;;;;;;;5.63;3.60;;;18.20;99.90;;;;;;5103863;28;20605;-46
2021/07/05 01:37:42;;;;;;;5.57;4.10;;;18.10;99.90;;;;;;5085126;28;20205;-46
2021/07/05 01:40:14;;;;;;;4.37;3.97;;;18.20;99.90;;;;;;5102179;28;20686;-46
2021/07/05 01:42:41;;;;;;;4.50;4.10;;;18.10;99.90;;;;;;5097560;28;20713;-48
2021/07/05 01:45:09;;;;;;;4.73;4.33;;;18.00;99.90;;;;;;5097489;28;20944;-50
2021/07/05 01:47:36;;;;;;;3.87;3.43;;;18.00;99.90;;;;;;5103066;28;20209;-46
2021/07/05 01:50:03;;;;;;;3.80;3.60;;;18.10;99.90;;;;;;5099390;28;20193;-49
2021/07/05 01:52:30;;;;;;;4.13;3.73;;;18.10;99.90;;;;;;5086883;28;20216;-47
2021/07/05 01:54:56;;;;;;;4.00;3.70;;;18.10;99.90;;;;;;5096228;28;20190;-51
2021/07/05 01:57:27;;;;;;;4.30;3.90;;;18.10;99.90;;;;;;5098427;28;20368;-50
2021/07/05 01:59:56;;;;;;;3.60;3.30;;;18.20;99.90;;;;;;5101078;28;20227;-48
2021/07/05 02:02:23;;;;;;;4.27;3.87;;;18.20;99.90;;;;;;5100686;28;20567;-48
2021/07/05 02:04:51;;;;;;;4.77;4.37;;;18.20;99.90;;;;;;5102145;28;20691;-49
2021/07/05 02:07:18;;;;;;;4.67;4.37;;;18.10;99.90;;;;;;5085691;28;21209;-52
2021/07/05 02:09:46;;;;;;;5.67;4.47;;;18.00;99.90;;;;;;5102064;28;20198;-47
2021/07/05 02:12:13;;;;;;;4.40;4.10;;;18.00;99.90;;;;;;5096448;28;20886;-46
2021/07/05 02:14:43;;;;;;;4.73;4.40;;;18.10;99.90;;;;;;5094603;28;20276;-47
2021/07/05 02:17:10;;;;;;;5.23;4.60;;;18.10;99.90;;;;;;5097927;28;20237;-46
2021/07/05 02:19:37;;;;;;;4.83;4.30;;;18.10;99.90;;;;;;5102307;28;20220;-49
2021/07/05 02:22:05;;;;;;;4.90;4.60;;;18.10;99.90;;;;;;5098991;28;20282;-46
2021/07/05 02:24:32;;;;;;;5.17;4.80;;;18.00;99.90;;;;;;5088481;28;20211;-49
2021/07/05 02:26:59;;;;;;;5.23;4.83;;;18.00;99.90;;;;;;5099280;28;20198;-50
2021/07/05 02:29:25;;;;;;;4.70;4.40;;;17.90;99.90;;;;;;5100993;28;20289;-51
2021/07/05 02:31:53;;;;;;;5.07;4.67;;;17.90;99.90;;;;;;5101221;28;20217;-47
2021/07/05 02:34:20;;;;;;;4.67;4.27;;;18.00;99.90;;;;;;5100389;28;20717;-47
2021/07/05 02:36:47;;;;;;;5.57;5.07;;;17.90;99.90;;;;;;5102370;28;20197;-47
2021/07/05 02:39:14;;;;;;;4.93;4.53;;;17.90;99.90;;;;;;5083839;28;20213;-47
2021/07/05 02:41:40;;;;;;;5.70;4.80;;;17.90;99.90;;;;;;5101596;28;20228;-48
2021/07/05 02:44:07;;;;;;;5.07;4.67;;;18.00;99.90;;;;;;5094945;28;20193;-50
2021/07/05 02:46:34;;;;;;;6.13;4.90;;;17.90;99.90;;;;;;5101650;28;20197;-52
2021/07/05 02:49:02;;;;;;;5.27;4.77;;;17.90;99.90;;;;;;5097715;28;20206;-52
2021/07/05 02:51:28;;;;;;;4.63;4.30;;;18.00;99.90;;;;;;5101819;28;20213;-50
2021/07/05 02:53:55;;;;;;;5.30;4.77;;;17.90;99.90;;;;;;5085227;28;20212;-50
2021/07/05 02:56:22;;;;;;;5.00;4.27;;;17.90;99.90;;;;;;5099437;28;20201;-49
2021/07/05 02:58:49;;;;;;;4.70;4.30;;;17.80;99.90;;;;;;5101419;28;20217;-47
2021/07/05 03:01:17;;;;;;;4.83;4.53;;;17.90;99.90;;;;;;5098549;28;20216;-48
2021/07/05 03:03:44;;;;;;;5.13;4.23;;;17.90;99.90;;;;;;5102103;28;20193;-48
2021/07/05 03:06:12;;;;;;;4.87;4.47;;;17.90;99.90;;;;;;5097924;28;20701;-49
2021/07/05 03:08:39;;;;;;;6.47;4.73;;;17.90;99.90;;;;;;5102088;28;20200;-47
2021/07/05 03:11:08;;;;;;;5.87;5.23;;;17.90;99.90;;;;;;5083710;28;20333;-49
2021/07/05 03:13:35;;;;;;;5.10;4.70;;;17.90;99.90;;;;;;5101280;28;20276;-49
2021/07/05 03:16:01;;;;;;;5.33;4.83;;;17.90;99.90;;;;;;5098836;28;20662;-49
2021/07/05 03:18:28;;;;;;;5.50;5.10;;;17.90;99.90;;;;;;5101149;28;20544;-49
2021/07/05 03:20:55;;;;;;;5.47;4.97;;;17.90;99.90;;;;;;5100210;28;20202;-49
2021/07/05 03:23:25;;;;;;;5.53;5.03;;;17.80;99.90;;;;;;5101970;28;20194;-48
2021/07/05 03:25:52;;;;;;;5.63;4.97;;;17.80;99.90;;;;;;5090483;27;20196;-52
2021/07/05 03:28:20;;;;;;;5.97;5.30;;;17.80;99.90;;;;;;5102112;28;20857;-50
2021/07/05 03:30:49;;;;;;;5.73;5.23;;;17.90;99.90;;;;;;5105123;28;20764;-51
2021/07/05 03:33:17;;;;;;;6.17;5.57;;;17.90;99.90;;;;;;5102396;28;20313;-50
2021/07/05 03:35:45;;;;;;;6.43;5.83;;;17.90;99.90;;;;;;5105497;28;20200;-48
2021/07/05 03:38:14;;;;;;;7.07;6.20;;;17.90;99.90;;;;;;5101061;28;20265;-49
2021/07/05 03:40:42;;;;;;;6.53;5.83;;;17.80;99.90;;;;;;5090405;28;20361;-47
2021/07/05 03:43:09;;;;;;;8.50;6.73;;;17.80;99.90;;;;;;5088214;28;20555;-48
2021/07/05 03:45:38;;;;;;;7.93;7.03;;;17.80;99.90;;;;;;5096027;28;20662;-49
2021/07/05 03:48:06;;;;;;;9.63;7.90;;;17.70;99.90;;;;;;5095331;28;20200;-47
2021/07/05 03:50:34;;;;;;;8.43;7.63;;;17.70;99.90;;;;;;5094966;28;20185;-52
2021/07/05 03:53:01;;;;;;;9.57;8.67;;;17.70;99.90;;;;;;5104059;28;20445;-50
2021/07/05 03:55:29;;;;;;;10.80;9.70;;;17.70;99.90;;;;;;5095468;28;20682;-49
2021/07/05 03:57:59;;;;;;;10.03;9.03;;;17.70;99.90;;;;;;5097006;28;20767;-49
2021/07/05 04:00:28;;;;;;;11.80;9.47;;;17.70;99.90;;;;;;5102883;28;20253;-53
2021/07/05 04:02:55;;;;;;;11.23;10.10;;;17.70;99.90;;;;;;5097989;28;20251;-47
2021/07/05 04:05:22;;;;;;;10.97;9.43;;;17.70;99.90;;;;;;5103171;28;20205;-50
2021/07/05 04:07:48;;;;;;;12.70;10.30;;;17.70;99.90;;;;;;5101687;27;20283;-45
2021/07/05 04:10:16;;;;;;;11.07;9.87;;;17.70;99.90;;;;;;5104841;28;20189;-47
2021/07/05 04:12:44;;;;;;;12.97;10.63;;;17.70;99.90;;;;;;5082885;28;20372;-62
2021/07/05 04:15:13;;;;;;;13.13;10.80;;;17.70;99.90;;;;;;5104724;28;20209;-62
2021/07/05 04:17:39;;;;;;;12.67;10.43;;;17.70;99.90;;;;;;5100246;28;20757;-62
2021/07/05 04:20:11;;;;;;;13.20;11.67;;;17.80;99.90;;;;;;5093465;28;20714;-62
2021/07/05 04:22:38;;;;;;;12.97;11.37;;;17.80;99.90;;;;;;5093875;28;20213;-62
2021/07/05 04:25:07;;;;;;;14.17;12.83;;;17.80;99.90;;;;;;5104628;28;20208;-62
2021/07/05 04:27:34;;;;;;;14.77;11.70;;;17.80;99.90;;;;;;5086707;28;20205;-61
2021/07/05 04:30:01;;;;;;;13.83;12.23;;;17.70;99.90;;;;;;5091222;28;20189;-60
2021/07/05 04:32:29;;;;;;;15.40;13.10;;;17.70;99.90;;;;;;5102474;28;20221;-50
2021/07/05 04:34:56;;;;;;;14.67;12.90;;;17.70;99.90;;;;;;5096174;28;20232;-49
2021/07/05 04:37:23;;;;;;;14.63;12.90;;;17.70;99.90;;;;;;5103176;28;20276;-47
2021/07/05 04:39:50;;;;;;;14.27;12.77;;;17.70;99.90;;;;;;5101169;28;20212;-49
2021/07/05 04:42:16;;;;;;;13.30;11.83;;;17.80;99.90;;;;;;5088298;28;20220;-47
2021/07/05 04:44:43;;;;;;;15.43;12.73;;;17.80;99.90;;;;;;5099613;28;20186;-50
2021/07/05 04:47:11;;;;;;;14.33;12.83;;;17.90;99.90;;;;;;5097710;28;20197;-49
2021/07/05 04:49:39;;;;;;;16.63;14.43;;;17.90;99.90;;;;;;5092486;28;20201;-50
2021/07/05 04:52:06;;;;;;;16.10;14.40;;;17.80;99.90;;;;;;5086978;28;20255;-47
2021/07/05 04:54:33;;;;;;;15.63;13.60;;;17.80;99.90;;;;;;5101327;28;20224;-47
2021/07/05 04:57:00;;;;;;;20.07;14.17;;;17.80;99.90;;;;;;5083004;28;20208;-48
2021/07/05 04:59:27;;;;;;;16.33;14.63;;;17.80;99.90;;;;;;5096827;28;20578;-52
2021/07/05 05:01:53;;;;;;;17.20;14.73;;;17.80;99.90;;;;;;5096872;28;20208;-48
2021/07/05 05:04:20;;;;;;;15.53;14.10;;;17.80;99.90;;;;;;5103705;28;20618;-49
2021/07/05 05:06:48;;;;;;;15.83;14.17;;;17.80;99.90;;;;;;5088023;28;20415;-49
2021/07/05 05:09:15;;;;;;;16.60;14.83;;;17.80;99.90;;;;;;5098249;28;20652;-47
2021/07/05 05:11:42;;;;;;;16.00;14.40;;;17.80;99.90;;;;;;5099340;28;20401;-50
2021/07/05 05:14:09;;;;;;;15.73;13.13;;;17.80;99.90;;;;;;5087271;28;20212;-46
2021/07/05 05:16:35;;;;;;;16.80;15.13;;;17.80;99.90;;;;;;5099053;28;20220;-48
2021/07/05 05:19:02;;;;;;;14.93;13.37;;;17.90;99.90;;;;;;5103519;28;20201;-48
2021/07/05 05:21:29;;;;;;;15.97;14.37;;;18.00;99.90;;;;;;5084459;28;20566;-47
2021/07/05 05:23:57;;;;;;;16.00;14.30;;;18.00;99.90;;;;;;5101873;28;20193;-46
2021/07/05 05:26:24;;;;;;;16.00;14.40;;;18.00;99.90;;;;;;5096203;28;20675;-48
2021/07/05 05:28:50;;;;;;;14.20;12.90;;;18.00;99.90;;;;;;5086253;28;20344;-47
2021/07/05 05:31:17;;;;;;;14.97;13.37;;;18.00;99.90;;;;;;5099125;28;20312;-46
2021/07/05 05:33:44;;;;;;;15.20;13.57;;;18.00;99.90;;;;;;5098550;28;20413;-47
2021/07/05 05:36:11;;;;;;;17.07;13.17;;;18.00;99.90;;;;;;5103101;28;20208;-48
2021/07/05 05:38:38;;;;;;;13.70;12.30;;;17.90;99.90;;;;;;5078894;27;20201;-49
2021/07/05 05:41:06;;;;;;;16.57;11.80;;;17.90;99.90;;;;;;5091476;28;20729;-49
2021/07/05 05:43:33;;;;;;;15.07;11.97;;;17.90;99.90;;;;;;5080197;28;20200;-52
2021/07/05 05:46:01;;;;;;;14.27;12.87;;;17.90;99.90;;;;;;5096732;28;20987;-49
2021/07/05 05:48:28;;;;;;;12.90;11.60;;;17.90;99.90;;;;;;5094491;28;20304;-48
2021/07/05 05:50:55;;;;;;;14.87;12.23;;;17.90;99.90;;;;;;5094497;28;20281;-51
2021/07/05 05:53:22;;;;;;;15.63;12.47;;;18.00;99.90;;;;;;5089686;28;20328;-59
2021/07/05 05:55:49;;;;;;;13.77;12.37;;;18.00;99.90;;;;;;5091660;28;20200;-59
2021/07/05 05:58:17;;;;;;;13.27;12.03;;;18.00;99.90;;;;;;5090607;28;20884;-59
2021/07/05 06:00:44;;;;;;;13.13;11.80;;;18.00;99.90;;;;;;5085738;28;20217;-58
2021/07/05 06:03:11;;;;;;;13.80;11.93;;;18.00;99.90;;;;;;5088467;28;20300;-59
2021/07/05 06:05:38;;;;;;;15.20;12.57;;;18.00;99.90;;;;;;5094342;28;20209;-60
2021/07/05 06:08:05;;;;;;;16.40;13.77;;;18.00;99.90;;;;;;5093058;28;20201;-62
2021/07/05 06:10:32;;;;;;;13.47;12.13;;;18.10;99.90;;;;;;5083488;28;20201;-62
2021/07/05 06:12:58;;;;;;;14.73;13.23;;;18.10;99.90;;;;;;5092029;28;20217;-48
2021/07/05 06:15:26;;;;;;;14.60;12.87;;;18.20;99.90;;;;;;5074971;28;20221;-50
2021/07/05 06:17:54;;;;;;;13.90;12.20;;;18.20;99.90;;;;;;5084664;28;22811;-47
2021/07/05 06:20:21;;;;;;;13.97;12.13;;;18.30;99.90;;;;;;5094955;28;20694;-51
2021/07/05 06:22:50;;;;;;;13.47;11.70;;;18.20;99.90;;;;;;5090143;28;20298;-51
2021/07/05 06:25:17;;;;;;;13.17;11.90;;;18.30;99.90;;;;;;5089817;28;20254;-48
2021/07/05 06:27:44;;;;;;;11.97;10.87;;;18.20;99.90;;;;;;5089687;28;20409;-47
2021/07/05 06:30:11;;;;;;;15.43;12.07;;;18.10;99.90;;;;;;5097166;28;20185;-51
2021/07/05 06:32:39;;;;;;;12.63;11.43;;;18.20;99.90;;;;;;5066096;28;20436;-51
2021/07/05 06:35:07;;;;;;;13.53;11.83;;;18.20;99.90;;;;;;5101441;28;20200;-49
2021/07/05 06:37:34;;;;;;;14.70;13.13;;;18.20;99.90;;;;;;5082166;28;20217;-49
2021/07/05 06:40:01;;;;;;;17.30;12.90;;;18.10;99.90;;;;;;5093852;28;20209;-50
2021/07/05 06:42:28;;;;;;;12.73;11.23;;;18.10;99.90;;;;;;5098715;28;20217;-52
2021/07/05 06:44:54;;;;;;;13.93;11.07;;;18.10;99.90;;;;;;5099430;28;20200;-48
2021/07/05 06:47:21;;;;;;;12.50;11.30;;;18.00;99.90;;;;;;5086422;28;20205;-51
2021/07/05 06:49:49;;;;;;;14.63;11.83;;;18.10;99.90;;;;;;5092079;28;20193;-47
2021/07/05 06:52:15;;;;;;;12.70;11.50;;;18.10;99.90;;;;;;5098036;28;20296;-50
2021/07/05 06:54:42;;;;;;;12.10;10.90;;;18.00;99.90;;;;;;5076416;28;20663;-52
2021/07/05 06:57:28;;;;;;;14.00;11.47;;;17.90;99.90;;;;;;5096588;28;20197;-47
2021/07/05 06:59:56;;;;;;;11.80;10.67;;;18.00;99.90;;;;;;5100425;28;20906;-49
2021/07/05 07:02:23;;;;;;;12.57;11.17;;;18.10;99.90;;;;;;5077481;28;20225;-46
2021/07/05 07:04:51;;;;;;;12.50;10.63;;;18.10;99.90;;;;;;5086010;28;20193;-48
2021/07/05 07:07:18;;;;;;;14.83;11.23;;;18.20;99.90;;;;;;5098744;28;20208;-46
2021/07/05 07:09:45;;;;;;;11.47;10.27;;;18.30;99.90;;;;;;5083572;28;20190;-47
2021/07/05 07:12:11;;;;;;;11.33;10.13;;;18.30;99.90;;;;;;5098314;28;20817;-48
2021/07/05 07:14:38;;;;;;;11.23;9.73;;;18.30;99.90;;;;;;5083750;28;20205;-45
2021/07/05 07:17:07;;;;;;;10.23;9.33;;;18.40;99.90;;;;;;5085438;28;21119;-45
2021/07/05 07:19:34;;;;;;;11.97;9.20;;;18.30;99.90;;;;;;5094300;28;20224;-45
2021/07/05 07:22:04;;;;;;;10.70;9.73;;;18.40;99.90;;;;;;5099196;28;20615;-50
2021/07/05 07:24:32;;;;;;;13.63;10.17;;;18.40;99.90;;;;;;5095441;28;20281;-46
2021/07/05 07:27:00;;;;;;;9.67;8.77;;;18.30;99.90;;;;;;5093501;28;20189;-50
2021/07/05 07:29:27;;;;;;;9.73;8.77;;;18.30;99.90;;;;;;5097643;28;20200;-47
2021/07/05 07:31:54;;;;;;;10.37;9.37;;;18.30;99.90;;;;;;5081675;28;20219;-45
2021/07/05 07:34:21;;;;;;;9.40;8.57;;;18.40;99.90;;;;;;5089745;28;20393;-47
2021/07/05 07:36:48;;;;;;;9.23;8.40;;;18.40;99.90;;;;;;5101187;28;20193;-47
2021/07/05 07:39:19;;;;;;;11.67;8.47;;;18.30;99.90;;;;;;5097547;28;20795;-50
2021/07/05 07:41:45;;;;;;;9.30;8.23;;;18.40;99.90;;;;;;5086575;28;20213;-46
2021/07/05 07:44:12;;;;;;;11.30;8.77;;;18.50;99.90;;;;;;5100364;28;20199;-49
2021/07/05 07:46:38;;;;;;;9.50;8.63;;;18.60;99.90;;;;;;5100983;28;20201;-46
2021/07/05 07:49:05;;;;;;;9.20;8.30;;;18.70;99.90;;;;;;5072121;28;20193;-47
2021/07/05 07:51:32;;;;;;;9.67;8.40;;;18.70;99.90;;;;;;5101777;28;20216;-48
2021/07/05 07:53:59;;;;;;;12.10;9.13;;;18.60;99.90;;;;;;5099912;28;20196;-46
2021/07/05 07:56:29;;;;;;;9.83;8.17;;;18.60;99.90;;;;;;5094760;28;20205;-46
2021/07/05 07:58:56;;;;;;;11.90;8.50;;;18.60;99.90;;;;;;5098797;28;20650;-50
2021/07/05 08:01:23;;;;;;;10.97;8.87;;;18.60;99.90;;;;;;5100792;28;20231;-47
2021/07/05 08:03:49;;;;;;;11.47;8.93;;;18.60;99.90;;;;;;5089431;28;20289;-48
2021/07/05 08:06:16;;;;;;;9.03;8.13;;;18.60;99.90;;;;;;5094366;28;20507;-50
2021/07/05 08:08:47;;;;;;;8.20;7.50;;;18.60;99.90;;;;;;5097071;28;20209;-50
2021/07/05 08:11:13;;;;;;;9.27;8.27;;;18.60;99.90;;;;;;5094686;28;20232;-47
2021/07/05 08:13:41;;;;;;;10.77;8.10;;;18.70;99.90;;;;;;5098447;28;20198;-47
2021/07/05 08:16:08;;;;;;;7.90;7.20;;;18.80;99.90;;;;;;5089676;28;20476;-47
2021/07/05 08:18:35;;;;;;;9.63;7.83;;;18.90;99.90;;;;;;5099566;28;20853;-47
2021/07/05 08:21:03;;;;;;;7.40;6.60;;;18.90;99.90;;;;;;5076775;28;20295;-52
2021/07/05 08:23:30;;;;;;;8.03;6.60;;;18.80;99.90;;;;;;5102584;28;20201;-46
2021/07/05 08:25:56;;;;;;;8.07;7.37;;;18.80;99.90;;;;;;5090399;28;20204;-48
2021/07/05 08:28:24;;;;;;;7.80;7.00;;;18.90;99.90;;;;;;5101205;28;20212;-47
2021/07/05 08:30:53;;;;;;;8.07;7.20;;;19.10;99.90;;;;;;5097821;28;20190;-46
2021/07/05 08:33:20;;;;;;;8.30;7.50;;;19.20;99.90;;;;;;5091269;28;20193;-49
2021/07/05 08:35:47;;;;;;;7.53;6.83;;;19.20;99.90;;;;;;5078150;28;20212;-49
2021/07/05 08:38:14;;;;;;;7.63;6.90;;;19.20;99.90;;;;;;5100299;28;20807;-46
2021/07/05 08:40:41;;;;;;;7.17;6.57;;;19.20;99.90;;;;;;5098581;28;20421;-48
2021/07/05 08:43:08;;;;;;;6.80;6.30;;;19.20;99.90;;;;;;5086244;28;20221;-48
2021/07/05 08:45:37;;;;;;;7.00;6.40;;;19.30;99.90;;;;;;5097605;28;20583;-47
2021/07/05 08:48:07;;;;;;;7.30;6.40;;;19.30;99.90;;;;;;5100420;28;20219;-48
2021/07/05 08:50:34;;;;;;;8.07;7.37;;;19.40;99.90;;;;;;5079586;28;20205;-47
2021/07/05 08:53:01;;;;;;;7.37;6.77;;;19.40;99.90;;;;;;5092239;28;20228;-49
2021/07/05 08:55:29;;;;;;;10.73;7.60;;;19.60;99.90;;;;;;5099058;27;20201;-50
2021/07/05 08:57:56;;;;;;;8.30;7.60;;;19.70;99.90;;;;;;5088330;27;20197;-49
2021/07/05 09:00:25;;;;;;;8.00;7.40;;;19.70;99.90;;;;;;5092066;28;20781;-48
2021/07/05 09:02:52;;;;;;;9.63;8.27;;;19.80;99.90;;;;;;5099035;28;20221;-50
2021/07/05 09:05:20;;;;;;;10.20;8.17;;;19.70;99.90;;;;;;5095993;28;20855;-49
2021/07/05 09:08:05;;;;;;;9.10;8.20;;;19.70;99.90;;;;;;5079811;28;20206;-50
2021/07/05 09:10:43;;;;;;;9.60;8.40;;;19.40;99.90;;;;;;5097492;28;20196;-46
2021/07/05 09:13:13;;;;;;;9.47;8.53;;;19.30;99.90;;;;;;5085537;28;20300;-49
2021/07/05 09:15:44;;;;;;;9.30;8.30;;;19.20;99.90;;;;;;5100344;28;20228;-46
2021/07/05 09:18:24;;;;;;;9.47;8.67;;;19.10;99.90;;;;;;5085381;28;20212;-48
2021/07/05 09:20:53;;;;;;;10.37;8.73;;;19.20;99.90;;;;;;5096205;28;20212;-48
2021/07/05 09:23:21;;;;;;;9.47;7.57;;;19.20;99.90;;;;;;5082977;28;20227;-49
2021/07/05 09:25:50;;;;;;;8.23;7.50;;;19.40;99.90;;;;;;5101112;28;20635;-51
2021/07/05 09:28:18;;;;;;;8.60;7.20;;;19.50;99.90;;;;;;5092784;28;20206;-51
2021/07/05 09:30:47;;;;;;;6.80;6.30;;;19.70;99.90;;;;;;5098505;28;21475;-49
2021/07/05 09:33:15;;;;;;;9.37;7.30;;;19.90;99.90;;;;;;5098145;28;20213;-50
2021/07/05 09:35:42;;;;;;;7.80;6.40;;;19.70;99.90;;;;;;5098070;28;20189;-52
2021/07/05 09:38:10;;;;;;;8.93;8.03;;;19.70;99.90;;;;;;5071623;28;20211;-49
2021/07/05 09:40:37;;;;;;;8.43;7.73;;;19.60;99.90;;;;;;5093295;28;20449;-50
2021/07/05 09:43:21;;;;;;;8.27;7.53;;;19.70;99.90;;;;;;5096288;28;20214;-51
2021/07/05 09:45:48;;;;;;;7.80;7.10;;;19.80;99.90;;;;;;5092902;28;20541;-49
2021/07/05 09:48:17;;;;;;;8.43;7.70;;;19.90;99.90;;;;;;5094670;28;20721;-46
2021/07/05 09:50:44;;;;;;;9.40;8.60;;;20.00;99.90;;;;;;5094713;28;20203;-47
2021/07/05 09:53:35;;;;;;;8.80;8.00;;;20.00;99.90;;;;;;5078951;28;20259;-49
2021/07/05 09:56:23;;;;;;;8.43;7.63;;;20.00;99.90;;;;;;5087396;28;20366;-50
2021/07/05 09:58:52;;;;;;;8.57;7.77;;;20.20;99.90;;;;;;5090043;28;20193;-50
2021/07/05 10:01:43;;;;;;;9.37;8.57;;;20.20;99.90;;;;;;5094832;28;20217;-44
2021/07/05 10:04:12;;;;;;;9.90;9.00;;;20.30;99.90;;;;;;5089323;28;20189;-51
2021/07/05 10:06:42;;;;;;;8.70;8.00;;;20.40;99.90;;;;;;5089825;28;20262;-47
2021/07/05 10:09:10;;;;;;;9.37;8.60;;;20.60;99.90;;;;;;5078281;28;20215;-50
2021/07/05 10:11:38;;;;;;;9.57;8.77;;;20.60;99.90;;;;;;5086199;28;20772;-47
2021/07/05 10:14:14;;;;;;;8.90;8.17;;;20.60;99.90;;;;;;5086612;28;21142;-49
2021/07/05 10:16:42;;;;;;;9.13;8.30;;;20.60;99.90;;;;;;5096477;28;20199;-50
2021/07/05 10:19:09;;;;;;;8.20;7.47;;;20.60;99.90;;;;;;5097875;28;20821;-49
2021/07/05 10:21:37;;;;;;;7.47;6.87;;;20.60;99.90;;;;;;5098359;28;20880;-48
2021/07/05 10:24:06;;;;;;;8.13;7.50;;;20.70;99.90;;;;;;5091807;28;20302;-47
2021/07/05 10:26:35;;;;;;;7.23;6.63;;;20.90;99.90;;;;;;5087729;28;20201;-46
2021/07/05 10:29:02;;;;;;;9.03;6.80;;;21.00;99.90;;;;;;5085148;28;20824;-47
2021/07/05 10:31:29;;;;;;;9.33;8.53;;;21.20;99.90;;;;;;5093422;28;20221;-46
2021/07/05 10:34:00;;;;;;;7.13;6.57;;;21.20;99.90;;;;;;5102853;28;20205;-47
2021/07/05 10:36:30;;;;;;;7.73;7.13;;;21.10;99.90;;;;;;5104538;28;20193;-46
2021/07/05 10:39:00;;;;;;;7.70;6.90;;;21.20;99.90;;;;;;5102530;28;20201;-48
2021/07/05 10:41:37;;;;;;;6.30;5.90;;;21.20;99.90;;;;;;5091832;28;20221;-48
2021/07/05 10:44:05;;;;;;;6.03;5.53;;;21.30;99.90;;;;;;5098361;28;20315;-51
2021/07/05 10:46:38;;;;;;;6.93;6.33;;;21.40;99.90;;;;;;5088954;28;20323;-48
2021/07/05 10:49:06;;;;;;;7.20;6.40;;;21.30;99.90;;;;;;5098304;28;20193;-49
2021/07/05 10:51:41;;;;;;;6.37;5.77;;;21.30;99.90;;;;;;5090860;28;20213;-49
2021/07/05 10:54:08;;;;;;;6.73;6.23;;;21.20;99.90;;;;;;5093862;28;20423;-49
2021/07/05 10:56:41;;;;;;;9.77;6.33;;;21.20;99.90;;;;;;5089953;28;20212;-48
2021/07/05 10:59:37;;;;;;;9.40;6.80;;;21.30;99.90;;;;;;5093156;28;20205;-46
2021/07/05 11:02:47;;;;;;;7.83;7.13;;;21.30;99.90;;;;;;5085998;28;20409;-48
2021/07/05 11:05:44;;;;;;;7.23;6.60;;;21.40;99.90;;;;;;5099313;28;20277;-47
2021/07/05 11:08:26;;;;;;;8.87;8.13;;;21.40;99.90;;;;;;5026164;28;20210;-50
2021/07/05 11:11:26;;;;;;;8.03;7.30;;;21.50;99.90;;;;;;5070812;28;20315;-49
2021/07/05 11:14:21;;;;;;;7.47;6.90;;;21.60;99.90;;;;;;5030967;28;20211;-48
2021/07/05 11:17:00;;;;;;;7.53;6.87;;;21.50;99.90;;;;;;5016007;28;20265;-48
2021/07/05 11:19:45;;;;;;;6.50;5.60;;;21.60;99.90;;;;;;5082347;28;20837;-47
2021/07/05 11:22:21;;;;;;;6.07;5.57;;;21.50;99.90;;;;;;5096917;28;20208;-51
2021/07/05 11:24:54;;;;;;;6.13;5.63;;;21.60;99.90;;;;;;5087790;28;20661;-49
2021/07/05 11:27:52;;;;;;;7.13;6.40;;;21.60;99.90;;;;;;5086579;28;20244;-50
2021/07/05 11:30:40;;;;;;;6.23;5.63;;;21.50;99.90;;;;;;5097121;28;20905;-48
2021/07/05 11:33:25;;;;;;;5.73;5.33;;;21.60;99.90;;;;;;5093718;28;20303;-47
2021/07/05 11:35:54;;;;;;;7.33;6.20;;;21.60;99.90;;;;;;5096062;28;20212;-47
2021/07/05 11:38:42;;;;;;;5.70;5.40;;;21.60;99.90;;;;;;5098894;28;20224;-51
2021/07/05 11:41:25;;;;;;;5.83;5.33;;;21.80;99.90;;;;;;5102001;28;20193;-48
2021/07/05 11:43:58;;;;;;;5.28;4.78;;;21.90;99.90;;;;;;5085273;28;20201;-50
2021/07/05 11:46:48;;;;;;;6.78;5.50;;;21.90;99.90;;;;;;5098389;28;20204;-48
2021/07/05 11:49:19;;;;;;;6.28;5.78;;;21.90;99.90;;;;;;5099140;28;20280;-51
2021/07/05 11:51:50;;;;;;;7.70;5.85;;;21.90;99.90;;;;;;5098686;28;20216;-50
2021/07/05 11:54:18;;;;;;;5.45;5.05;;;21.90;99.90;;;;;;5088937;28;20630;-51
2021/07/05 11:56:47;;;;;;;5.40;5.07;;;21.90;99.90;;;;;;5103249;28;20583;-51
2021/07/05 11:59:18;;;;;;;5.30;4.90;;;21.90;99.90;;;;;;5088533;28;20201;-49
2021/07/05 12:01:45;;;;;;;5.63;5.20;;;22.00;99.90;;;;;;5095178;28;20222;-47
2021/07/05 12:04:13;;;;;;;5.30;4.80;;;22.00;99.90;;;;;;5096955;28;20204;-53
2021/07/05 12:06:48;;;;;;;4.80;4.40;;;22.00;99.90;;;;;;5104179;28;20205;-51
2021/07/05 12:09:17;;;;;;;3.90;3.53;;;22.00;99.90;;;;;;5095495;28;21077;-48
2021/07/05 12:11:46;;;;;;;3.55;3.35;;;21.90;99.90;;;;;;5097995;28;20267;-50
2021/07/05 12:14:15;;;;;;;3.17;2.97;;;21.80;99.90;;;;;;5080768;28;21280;-47
2021/07/05 12:16:44;;;;;;;3.88;3.10;;;21.80;99.90;;;;;;5103095;28;20193;-51
2021/07/05 12:19:14;;;;;;;3.75;3.20;;;21.80;99.90;;;;;;5088831;28;23142;-48
2021/07/05 12:21:43;;;;;;;3.08;2.85;;;21.70;99.90;;;;;;5100483;28;20206;-49
2021/07/05 12:24:16;;;;;;;3.22;2.92;;;21.70;99.90;;;;;;5083143;28;20209;-47
2021/07/05 12:26:45;;;;;;;2.97;2.78;;;21.70;99.90;;;;;;5096341;28;20566;-48
2021/07/05 12:29:15;;;;;;;3.80;3.50;;;21.70;99.90;;;;;;5081825;28;20201;-48
2021/07/05 12:31:57;;;;;;;4.85;3.25;;;21.60;99.90;;;;;;5098588;28;20260;-52
2021/07/05 12:34:38;;;;;;;5.10;3.17;;;21.60;99.90;;;;;;5095189;28;20196;-48
2021/07/05 12:37:06;;;;;;;3.77;3.47;;;21.50;99.90;;;;;;5092940;28;20998;-50
2021/07/05 12:39:47;;;;;;;3.53;3.30;;;21.40;99.90;;;;;;5086375;28;20594;-49
2021/07/05 12:42:21;;;;;;;3.95;3.50;;;21.40;99.90;;;;;;5095353;28;20436;-48
2021/07/05 12:44:49;;;;;;;3.75;3.45;;;21.50;99.90;;;;;;5092206;28;20560;-48
2021/07/05 12:47:16;;;;;;;6.05;3.55;;;21.50;99.90;;;;;;5096367;28;20234;-47
2021/07/05 12:49:44;;;;;;;7.95;4.65;;;21.50;99.90;;;;;;5102478;28;20210;-46
2021/07/05 12:52:11;;;;;;;4.05;3.65;;;21.40;99.90;;;;;;5095269;28;20213;-51